createdAt,value
2023-05-24T00:01:07.717Z,20.79
2023-05-24T00:03:39.518Z,20.77
2023-05-24T00:06:10.409Z,20.76
2023-05-24T00:08:41.092Z,20.74
2023-05-24T00:11:12.212Z,20.72
2023-05-24T00:13:42.912Z,20.71
2023-05-24T00:16:13.670Z,20.69
2023-05-24T00:18:47.208Z,20.66
2023-05-24T00:21:17.784Z,20.65
2023-05-24T00:23:48.455Z,20.62
2023-05-24T00:26:19.122Z,20.63
2023-05-24T00:28:49.847Z,20.62
2023-05-24T00:31:20.798Z,20.62
2023-05-24T00:33:51.452Z,20.59
2023-05-24T00:36:22.298Z,20.55
2023-05-24T00:38:54.076Z,20.51
2023-05-24T00:41:26.161Z,20.50
2023-05-24T00:43:56.791Z,20.50
2023-05-24T00:46:29.553Z,20.47
2023-05-24T00:49:00.374Z,20.42
2023-05-24T00:51:32.058Z,20.41
2023-05-24T00:54:02.867Z,20.40
2023-05-24T00:56:33.585Z,20.36
2023-05-24T00:59:05.196Z,20.29
2023-05-24T01:01:37.395Z,20.26
2023-05-24T01:04:08.235Z,20.27
2023-05-24T01:06:45.052Z,20.28
2023-05-24T01:09:26.175Z,20.25
2023-05-24T01:11:59.688Z,20.26
2023-05-24T01:14:31.105Z,20.23
2023-05-24T01:17:04.041Z,20.17
2023-05-24T01:19:50.679Z,20.14
2023-05-24T01:22:31.170Z,20.12
2023-05-24T01:25:04.787Z,20.10
2023-05-24T01:27:36.520Z,20.09
2023-05-24T01:30:08.012Z,20.08
2023-05-24T01:32:38.992Z,20.07
2023-05-24T01:35:10.440Z,20.07
2023-05-24T01:37:41.451Z,20.05
2023-05-24T01:40:13.193Z,20.03
2023-05-24T01:42:46.164Z,20.01
2023-05-24T01:45:19.189Z,19.99
2023-05-24T01:47:53.730Z,19.98
2023-05-24T01:50:28.216Z,19.98
2023-05-24T01:52:59.727Z,19.99
2023-05-24T01:55:31.245Z,19.99
2023-05-24T01:58:02.875Z,19.96
2023-05-24T02:00:34.219Z,19.91
2023-05-24T02:03:05.851Z,19.87
2023-05-24T02:05:38.211Z,19.84
2023-05-24T02:08:09.601Z,19.79
2023-05-24T02:10:40.593Z,19.77
2023-05-24T02:13:12.587Z,19.73
2023-05-24T02:15:44.963Z,19.70
2023-05-24T02:22:10.235Z,19.56
2023-05-24T02:24:41.610Z,19.52
2023-05-24T02:27:13.228Z,19.50
2023-05-24T02:29:44.234Z,19.49
2023-05-24T02:32:15.474Z,19.47
2023-05-24T02:34:47.242Z,19.39
2023-05-24T02:44:08.890Z,19.28
2023-05-24T02:46:39.477Z,19.26
2023-05-24T02:49:10.645Z,19.26
2023-05-24T02:51:41.399Z,19.25
2023-05-24T02:54:12.138Z,19.22
2023-05-24T02:56:42.853Z,19.21
2023-05-24T02:59:13.628Z,19.18
2023-05-24T03:01:44.373Z,19.15
2023-05-24T03:04:15.316Z,19.12
2023-05-24T03:06:46.219Z,19.11
2023-05-24T03:09:19.071Z,19.07
2023-05-24T03:11:49.863Z,19.05
2023-05-24T03:14:22.713Z,19.05
2023-05-24T03:16:53.224Z,19.06
2023-05-24T03:19:24.003Z,19.08
2023-05-24T03:21:54.862Z,19.08
2023-05-24T03:24:26.213Z,19.08
2023-05-24T03:26:57.023Z,19.07
2023-05-24T03:29:27.874Z,19.08
2023-05-24T03:31:58.521Z,19.05
2023-05-24T03:34:30.382Z,19.03
2023-05-24T03:37:01.212Z,19.01
2023-05-24T03:39:32.075Z,19.00
2023-05-24T03:42:02.830Z,18.97
2023-05-24T03:44:33.735Z,18.95
2023-05-24T03:47:04.348Z,18.96
2023-05-24T03:49:35.130Z,18.96
2023-05-24T03:52:10.379Z,18.94
2023-05-24T03:54:47.047Z,18.93
2023-05-24T03:57:18.540Z,18.91
2023-05-24T03:59:49.324Z,18.90
2023-05-24T04:02:20.403Z,18.90
2023-05-24T04:04:51.579Z,18.90
2023-05-24T04:07:34.420Z,18.91
2023-05-24T04:10:13.180Z,18.91
2023-05-24T04:12:51.644Z,18.89
2023-05-24T04:15:36.817Z,18.89
2023-05-24T04:18:09.043Z,18.92
2023-05-24T04:23:31.112Z,18.93
2023-05-24T04:26:03.039Z,18.94
2023-05-24T04:28:33.898Z,18.90
2023-05-24T04:31:06.980Z,18.93
2023-05-24T04:33:39.975Z,18.95
2023-05-24T04:36:11.906Z,18.99
2023-05-24T04:38:42.914Z,19.06
2023-05-24T04:41:15.079Z,19.10
2023-05-24T04:43:46.639Z,19.13
2023-05-24T04:46:17.824Z,19.19
2023-05-24T04:48:48.740Z,19.25
2023-05-24T04:51:20.563Z,19.30
2023-05-24T04:54:34.135Z,19.33
2023-05-24T05:00:31.628Z,19.48
2023-05-24T05:03:02.378Z,19.52
2023-05-24T05:05:33.353Z,19.58
2023-05-24T05:08:04.315Z,19.65
2023-05-24T05:10:35.232Z,19.70
2023-05-24T05:13:06.052Z,19.77
2023-05-24T05:15:37.105Z,19.82
2023-05-24T05:18:08.000Z,19.88
2023-05-24T05:21:03.538Z,19.95
2023-05-24T05:23:36.548Z,20.02
2023-05-24T05:26:08.090Z,20.06
2023-05-24T05:29:13.249Z,20.13
2023-05-24T05:31:48.034Z,20.22
2023-05-24T05:34:57.090Z,20.31
2023-05-24T05:37:46.368Z,20.40
2023-05-24T05:40:17.408Z,20.43
2023-05-24T05:42:50.229Z,20.49
2023-05-24T05:45:21.271Z,20.58
2023-05-24T05:47:52.652Z,20.67
2023-05-24T05:50:23.712Z,20.74
2023-05-24T05:53:12.723Z,20.83
2023-05-24T05:55:47.672Z,20.93
2023-05-24T05:58:20.903Z,21.00
2023-05-24T06:01:05.834Z,21.12
2023-05-24T06:03:36.900Z,21.22
2023-05-24T06:06:08.654Z,21.33
2023-05-24T06:08:51.331Z,21.43
2023-05-24T06:11:22.482Z,21.54
2023-05-24T06:16:57.350Z,21.75
2023-05-24T06:19:35.179Z,21.87
2023-05-24T06:22:05.892Z,21.97
2023-05-24T06:24:40.081Z,22.08
2023-05-24T06:27:10.785Z,22.19
2023-05-24T06:29:44.084Z,22.29
2023-05-24T06:32:16.449Z,22.40
2023-05-24T06:34:48.392Z,22.51
2023-05-24T06:37:19.335Z,22.64
2023-05-24T06:39:50.078Z,22.75
2023-05-24T06:42:21.060Z,22.88
2023-05-24T06:44:52.084Z,23.02
2023-05-24T06:47:24.125Z,23.13
2023-05-24T06:49:57.242Z,23.26
2023-05-24T06:52:29.945Z,23.42
2023-05-24T06:55:01.545Z,23.57
2023-05-24T06:57:33.352Z,23.71
2023-05-24T07:00:23.662Z,23.87
2023-05-24T07:06:09.673Z,24.28
2023-05-24T07:08:55.687Z,24.51
2023-05-24T07:15:08.345Z,24.99
2023-05-24T07:21:23.757Z,25.37
2023-05-24T07:24:06.190Z,25.65
2023-05-24T07:26:51.225Z,25.91
2023-05-24T07:29:37.207Z,26.10
2023-05-24T07:35:09.100Z,26.49
2023-05-24T07:37:40.850Z,26.60
2023-05-24T07:40:12.642Z,26.73
2023-05-24T07:42:43.720Z,26.89
2023-05-24T07:45:16.987Z,27.09
2023-05-24T07:47:56.570Z,27.19
2023-05-24T07:53:48.328Z,27.22
2023-05-24T07:56:22.217Z,27.06
2023-05-24T07:58:56.954Z,27.05
2023-05-24T08:01:29.214Z,27.13
2023-05-24T08:04:06.217Z,27.09
2023-05-24T08:07:04.013Z,27.04
2023-05-24T08:09:52.939Z,27.00
2023-05-24T08:12:32.368Z,27.14
2023-05-24T08:15:04.368Z,27.43
2023-05-24T08:17:36.301Z,27.70
2023-05-24T08:20:14.977Z,27.90
2023-05-24T08:22:48.752Z,27.91
2023-05-24T08:25:20.397Z,27.94
2023-05-24T08:27:52.340Z,27.99
2023-05-24T08:30:25.128Z,28.13
2023-05-24T08:33:12.556Z,28.36
2023-05-24T08:35:46.800Z,28.58
2023-05-24T08:38:18.003Z,28.65
2023-05-24T08:40:50.474Z,28.71
2023-05-24T08:43:21.211Z,28.84
2023-05-24T08:45:52.154Z,28.96
2023-05-24T08:48:23.058Z,29.25
2023-05-24T08:50:54.107Z,29.67
2023-05-24T08:53:25.024Z,30.07
2023-05-24T08:55:57.683Z,30.38
2023-05-24T08:58:28.303Z,30.60
2023-05-24T09:00:59.172Z,30.93
2023-05-24T09:03:29.896Z,31.26
2023-05-24T09:06:01.290Z,31.48
2023-05-24T09:08:35.198Z,31.65
2023-05-24T09:11:09.747Z,31.74
2023-05-24T09:13:41.115Z,31.74
2023-05-24T09:16:11.983Z,31.71
2023-05-24T09:18:43.075Z,31.85
2023-05-24T09:21:14.097Z,32.07
2023-05-24T09:23:44.816Z,32.16
2023-05-24T09:26:15.967Z,32.27
2023-05-24T09:28:47.974Z,32.32
2023-05-24T09:31:18.823Z,32.60
2023-05-24T09:33:51.901Z,32.97
2023-05-24T09:36:22.928Z,33.16
2023-05-24T09:39:05.725Z,33.27
2023-05-24T09:41:42.516Z,33.23
2023-05-24T09:44:28.492Z,32.77
2023-05-24T09:49:59.857Z,31.88
2023-05-24T10:05:24.583Z,31.49
2023-05-24T10:07:55.293Z,31.87
2023-05-24T10:10:28.175Z,32.30
2023-05-24T10:12:58.991Z,32.62
2023-05-24T10:15:31.758Z,32.97
2023-05-24T10:18:10.695Z,33.31
2023-05-24T10:20:44.463Z,33.71
2023-05-24T10:23:17.672Z,34.07
2023-05-24T10:25:55.875Z,34.32
2023-05-24T10:28:26.920Z,34.58
2023-05-24T10:31:02.234Z,34.44
2023-05-24T10:33:33.789Z,34.43
2023-05-24T10:36:06.567Z,34.49
2023-05-24T10:38:41.935Z,34.44
2023-05-24T10:41:15.956Z,34.43
2023-05-24T10:44:00.734Z,34.32
2023-05-24T10:46:38.532Z,34.33
2023-05-24T10:49:09.469Z,34.64
2023-05-24T10:51:41.346Z,35.02
2023-05-24T10:54:19.366Z,35.12
2023-05-24T10:56:50.760Z,35.29
2023-05-24T10:59:29.719Z,35.43
2023-05-24T11:02:03.206Z,35.67
2023-05-24T11:04:35.964Z,35.93
2023-05-24T11:07:09.864Z,36.12
2023-05-24T11:09:46.546Z,36.15
2023-05-24T11:12:20.785Z,36.28
2023-05-24T11:14:52.562Z,36.31
2023-05-24T11:17:24.392Z,36.44
2023-05-24T11:19:55.725Z,36.63
2023-05-24T11:22:27.036Z,36.82
2023-05-24T11:25:12.939Z,36.94
2023-05-24T11:27:45.559Z,36.96
2023-05-24T11:30:16.980Z,37.06
2023-05-24T11:32:50.466Z,36.80
2023-05-24T11:35:23.326Z,36.55
2023-05-24T11:37:56.583Z,36.65
2023-05-24T11:40:27.407Z,36.82
2023-05-24T11:42:58.345Z,36.80
2023-05-24T11:45:31.262Z,36.74
2023-05-24T11:48:05.133Z,36.92
2023-05-24T11:50:48.712Z,37.02
2023-05-24T11:53:21.714Z,36.98
2023-05-24T11:55:52.806Z,37.20
2023-05-24T11:58:25.033Z,37.41
2023-05-24T12:00:55.937Z,37.18
2023-05-24T12:03:27.143Z,37.00
2023-05-24T12:06:00.022Z,36.89
2023-05-24T12:08:30.974Z,36.80
2023-05-24T12:11:03.043Z,36.77
2023-05-24T12:13:35.069Z,36.90
2023-05-24T12:16:06.507Z,37.04
2023-05-24T12:18:39.944Z,37.07
2023-05-24T12:21:14.989Z,37.38
2023-05-24T12:23:46.417Z,37.69
2023-05-24T12:26:20.740Z,37.72
2023-05-24T12:28:57.174Z,37.75
2023-05-24T12:37:35.011Z,37.66
2023-05-24T12:40:17.605Z,37.74
2023-05-24T12:42:51.687Z,37.78
2023-05-24T12:45:25.917Z,37.75
2023-05-24T12:47:57.782Z,37.66
2023-05-24T12:50:28.719Z,37.72
2023-05-24T12:52:59.614Z,37.82
2023-05-24T12:55:30.773Z,37.88
2023-05-24T12:58:09.029Z,38.09
2023-05-24T13:00:39.972Z,38.17
2023-05-24T13:03:12.331Z,38.29
2023-05-24T13:05:43.417Z,38.12
2023-05-24T13:08:14.905Z,37.82
2023-05-24T13:10:45.909Z,37.54
2023-05-24T13:13:17.062Z,37.35
2023-05-24T13:15:50.456Z,36.77
2023-05-24T13:18:21.270Z,36.03
2023-05-24T13:20:56.346Z,35.45
2023-05-24T13:23:31.438Z,35.17
2023-05-24T13:26:08.517Z,35.02
2023-05-24T13:28:58.630Z,34.90
2023-05-24T13:31:34.480Z,34.60
2023-05-24T13:34:07.503Z,34.47
2023-05-24T13:36:38.829Z,34.28
2023-05-24T13:39:16.166Z,34.15
2023-05-24T13:41:47.810Z,34.15
2023-05-24T13:44:18.887Z,34.28
2023-05-24T13:53:55.798Z,35.29
2023-05-24T13:56:24.633Z,35.39
2023-05-24T13:58:56.016Z,35.36
2023-05-24T14:01:24.505Z,35.14
2023-05-24T14:03:52.587Z,35.08
2023-05-24T14:06:25.503Z,35.07
2023-05-24T14:08:55.715Z,35.04
2023-05-24T14:11:24.306Z,35.19
2023-05-24T14:16:23.987Z,35.59
2023-05-24T14:18:53.662Z,35.56
2023-05-24T14:21:22.902Z,35.21
2023-05-24T14:23:50.983Z,34.92
2023-05-24T14:26:19.382Z,34.77
2023-05-24T14:28:47.352Z,34.87
2023-05-24T14:31:15.440Z,35.01
2023-05-24T14:33:45.908Z,35.07
2023-05-24T14:36:15.094Z,35.30
2023-05-24T14:38:44.195Z,35.48
2023-05-24T14:41:12.403Z,35.51
2023-05-24T14:43:41.417Z,35.48
2023-05-24T14:46:09.582Z,35.54
2023-05-24T14:48:40.910Z,35.60
2023-05-24T14:51:09.056Z,35.56
2023-05-24T14:53:37.295Z,35.51
2023-05-24T14:56:08.626Z,35.50
2023-05-24T14:58:36.774Z,35.39
2023-05-24T15:01:06.780Z,35.18
2023-05-24T15:03:35.384Z,34.87
2023-05-24T15:06:04.968Z,34.70
2023-05-24T15:08:34.357Z,34.61
2023-05-24T15:11:02.323Z,34.49
2023-05-24T15:13:30.608Z,34.15
2023-05-24T15:15:59.937Z,33.81
2023-05-24T15:18:30.262Z,33.45
2023-05-24T15:20:58.682Z,33.02
2023-05-24T15:23:31.854Z,32.83
2023-05-24T15:26:02.780Z,32.74
2023-05-24T15:28:31.091Z,32.75
2023-05-24T15:31:01.182Z,32.71
2023-05-24T15:33:29.207Z,32.65
2023-05-24T15:35:57.482Z,32.54
2023-05-24T15:38:25.597Z,32.40
2023-05-24T15:40:55.177Z,32.24
2023-05-24T15:43:23.157Z,32.14
2023-05-24T15:45:51.264Z,31.98
2023-05-24T15:48:19.511Z,31.91
2023-05-24T15:51:25.776Z,31.72
2023-05-24T15:53:36.268Z,31.48
2023-05-24T15:56:04.675Z,31.34
2023-05-24T15:58:32.784Z,31.32
2023-05-24T16:01:00.856Z,31.26
2023-05-24T16:10:14.448Z,30.88
2023-05-24T16:12:45.025Z,30.84
2023-05-24T16:15:16.027Z,30.76
2023-05-24T16:17:46.934Z,30.67
2023-05-24T16:20:18.034Z,30.60
2023-05-24T16:22:53.097Z,30.53
2023-05-24T16:25:24.041Z,30.39
2023-05-24T16:27:56.733Z,30.25
2023-05-24T16:30:30.069Z,30.14
2023-05-24T16:33:01.182Z,29.97
2023-05-24T16:35:33.586Z,29.73
2023-05-24T16:38:05.614Z,29.50
2023-05-24T16:40:37.714Z,29.33
2023-05-24T16:43:08.558Z,29.04
2023-05-24T16:46:01.581Z,28.90
2023-05-24T16:48:37.170Z,28.85
2023-05-24T16:51:07.950Z,28.83
2023-05-24T16:53:38.754Z,28.88
2023-05-24T16:56:09.549Z,28.91
2023-05-24T16:58:40.263Z,28.85
2023-05-24T17:01:11.321Z,28.70
2023-05-24T17:03:42.391Z,28.53
2023-05-24T17:06:13.286Z,28.29
2023-05-24T17:08:44.012Z,28.06
2023-05-24T17:11:17.084Z,27.94
2023-05-24T17:13:48.056Z,27.89
2023-05-24T17:16:19.130Z,27.80
2023-05-24T17:18:49.849Z,27.70
2023-05-24T17:21:21.301Z,27.52
2023-05-24T17:23:52.064Z,27.47
2023-05-24T17:26:23.521Z,27.47
2023-05-24T17:28:54.278Z,27.49
2023-05-24T17:31:25.230Z,27.50
2023-05-24T17:33:56.600Z,27.52
2023-05-24T17:36:27.359Z,27.56
2023-05-24T17:38:59.950Z,27.54
2023-05-24T17:41:30.954Z,27.54
2023-05-24T17:44:01.928Z,27.55
2023-05-24T17:46:36.367Z,27.54
2023-05-24T17:49:08.335Z,27.55
2023-05-24T17:51:39.411Z,27.53
2023-05-24T17:54:10.104Z,27.52
2023-05-24T17:56:41.268Z,27.48
2023-05-24T18:02:29.698Z,27.42
2023-05-24T18:05:02.783Z,27.36
2023-05-24T18:07:33.479Z,27.32
2023-05-24T18:10:04.247Z,27.28
2023-05-24T18:12:35.197Z,27.22
2023-05-24T18:15:06.863Z,27.13
2023-05-24T18:17:37.809Z,26.98
2023-05-24T18:20:09.270Z,26.84
2023-05-24T18:22:41.744Z,26.66
2023-05-24T18:25:12.571Z,26.49
2023-05-24T18:27:43.367Z,26.42
2023-05-24T18:30:14.971Z,26.42
2023-05-24T18:33:02.806Z,26.46
2023-05-24T18:35:35.883Z,26.52
2023-05-24T18:38:06.714Z,26.57
2023-05-24T18:40:37.670Z,26.61
2023-05-24T18:43:10.852Z,26.62
2023-05-24T18:45:44.666Z,26.56
2023-05-24T18:48:18.662Z,26.50
2023-05-24T18:50:50.586Z,26.41
2023-05-24T18:53:21.455Z,26.33
2023-05-24T18:55:52.139Z,26.28
2023-05-24T18:58:23.147Z,26.25
2023-05-24T19:00:54.059Z,26.23
2023-05-24T19:03:25.435Z,26.20
2023-05-24T19:05:56.313Z,26.19
2023-05-24T19:08:27.270Z,26.21
2023-05-24T19:10:58.141Z,26.23
2023-05-24T19:13:29.180Z,26.23
2023-05-24T19:16:01.841Z,26.20
2023-05-24T19:18:32.751Z,26.18
2023-05-24T19:21:03.578Z,26.16
2023-05-24T19:23:34.655Z,26.12
2023-05-24T19:26:05.620Z,26.06
2023-05-24T19:28:40.379Z,26.02
2023-05-24T19:31:16.520Z,25.95
2023-05-24T19:34:00.041Z,25.85
2023-05-24T19:36:32.978Z,25.76
2023-05-24T19:39:04.043Z,25.72
2023-05-24T19:41:34.785Z,25.69
2023-05-24T19:44:05.535Z,25.65
2023-05-24T19:46:37.169Z,25.62
2023-05-24T19:49:08.318Z,25.60
2023-05-24T19:51:39.445Z,25.57
2023-05-24T19:54:10.328Z,25.53
2023-05-24T19:56:41.392Z,25.45
2023-05-24T19:59:12.218Z,25.36
2023-05-24T20:01:42.980Z,25.27
2023-05-24T20:04:14.155Z,25.16
2023-05-24T20:06:45.218Z,25.12
2023-05-24T20:09:19.037Z,25.09
2023-05-24T20:11:49.805Z,25.04
2023-05-24T20:14:21.428Z,24.99
2023-05-24T20:16:52.380Z,25.04
2023-05-24T20:19:23.889Z,25.07
2023-05-24T20:21:54.688Z,25.11
2023-05-24T20:24:25.443Z,25.12
2023-05-24T20:26:56.198Z,25.14
2023-05-24T20:29:27.001Z,25.14
2023-05-24T20:31:57.857Z,25.09
2023-05-24T20:34:28.757Z,25.07
2023-05-24T20:36:59.376Z,25.06
2023-05-24T20:39:30.214Z,25.07
2023-05-24T20:42:00.985Z,25.05
2023-05-24T20:44:32.805Z,25.03
2023-05-24T20:47:03.755Z,25.02
2023-05-24T20:49:36.440Z,25.01
2023-05-24T20:52:07.853Z,24.99
2023-05-24T20:54:38.742Z,24.98
2023-05-24T20:57:09.585Z,24.97
2023-05-24T20:59:40.484Z,24.95
2023-05-24T21:02:11.209Z,24.90
2023-05-24T21:04:42.044Z,24.87
2023-05-24T21:07:12.931Z,24.87
2023-05-24T21:09:43.611Z,24.86
2023-05-24T21:12:14.344Z,24.85
2023-05-24T21:14:45.112Z,24.82
2023-05-24T21:17:15.894Z,24.79
2023-05-24T21:19:46.750Z,24.67
2023-05-24T21:22:17.601Z,24.34
2023-05-24T21:24:48.704Z,23.93
2023-05-24T21:27:20.462Z,23.71
2023-05-24T21:29:51.331Z,23.63
2023-05-24T21:32:22.023Z,23.49
2023-05-24T21:34:52.838Z,23.27
2023-05-24T21:37:23.861Z,23.12
2023-05-24T21:39:54.512Z,23.03
2023-05-24T21:42:25.385Z,22.90
2023-05-24T21:44:55.978Z,22.88
2023-05-24T21:47:26.886Z,22.80
2023-05-24T21:49:57.628Z,22.60
2023-05-24T21:52:28.518Z,22.47
2023-05-24T21:54:59.154Z,22.42
2023-05-24T21:57:30.054Z,22.32
2023-05-24T22:00:00.757Z,22.30
2023-05-24T22:02:32.078Z,22.37
2023-05-24T22:05:05.313Z,22.42
2023-05-24T22:07:37.174Z,22.44
2023-05-24T22:10:08.657Z,22.47
2023-05-24T22:12:39.488Z,22.51
2023-05-24T22:15:11.261Z,22.56
2023-05-24T22:17:42.079Z,22.60
2023-05-24T22:20:13.725Z,22.60
2023-05-24T22:22:49.005Z,22.57
2023-05-24T22:25:20.969Z,22.54
2023-05-24T22:27:51.903Z,22.56
2023-05-24T22:30:23.826Z,22.58
2023-05-24T22:32:56.015Z,22.58
2023-05-24T22:35:26.767Z,22.56
2023-05-24T22:37:57.648Z,22.54
2023-05-24T22:40:28.361Z,22.55
2023-05-24T22:42:59.210Z,22.58
2023-05-24T22:45:29.970Z,22.61
2023-05-24T22:48:00.849Z,22.63
2023-05-24T22:50:32.457Z,22.65
2023-05-24T22:53:03.021Z,22.64
2023-05-24T22:55:33.690Z,22.57
2023-05-24T22:58:04.473Z,22.53
2023-05-24T23:00:35.229Z,22.55
2023-05-24T23:03:07.799Z,22.57
2023-05-24T23:05:41.166Z,22.57
2023-05-24T23:08:13.662Z,22.54
2023-05-24T23:10:45.815Z,22.51
2023-05-24T23:13:18.948Z,22.52
2023-05-24T23:15:49.715Z,22.53
2023-05-24T23:18:22.517Z,22.53
2023-05-24T23:20:55.066Z,22.51
2023-05-24T23:23:25.888Z,22.50
2023-05-24T23:25:56.748Z,22.45
2023-05-24T23:28:27.699Z,22.44
2023-05-24T23:30:58.587Z,22.45
2023-05-24T23:33:29.377Z,22.40
2023-05-24T23:35:59.982Z,22.37
2023-05-24T23:38:31.018Z,22.37
2023-05-24T23:41:01.831Z,22.35
2023-05-24T23:43:32.569Z,22.29
2023-05-24T23:46:03.177Z,22.22
2023-05-24T23:48:33.901Z,22.17
2023-05-24T23:51:05.001Z,22.11
2023-05-24T23:53:35.992Z,22.04
2023-05-24T23:56:07.236Z,22.03
2023-05-24T23:58:37.966Z,21.99
